People's Park, Hungary

2:35 PM CET on December 17, 2017 (GMT +0100)
Kecskemet | | Change Station

Elev 404 ft 46.92 °N, 19.75 °E | Updated 20 minutes ago

Clear
Clear
34 °F
Feels Like 26 °F
N
9
Wind Variable Wind from NW

Today
High -- | Low -- °F
--% Chance of Precip.
Yesterday
High -- | Low -- °F
Precip. -- in
Pressure 30.04 in
Visibility 3.7 miles
Clouds
Windchill 26 °F
Dew Point 32 °F
Humidity 93%
Rainfall 0.00 in
Snow Depth Not available.
7:26 AM 3:53 PM
Waning Crescent, 0% visible
METAR LHKE 171315Z 32008KT 6000 NSC 01/00 Q1017 BECMG 5000 BR RMK WHT
Pressure 30.04 in
Visibility 3.7 miles
Clouds
Windchill 26 °F
Dew Point 32 °F
Humidity 93%
Rainfall 0.00 in
Snow Depth Not available.
7:26 AM 3:53 PM
Waning Crescent, 0% visible
METAR LHKE 171315Z 32008KT 6000 NSC 01/00 Q1017 BECMG 5000 BR RMK WHT

Get Severe Weather Alerts

Thanks for signing up!

Be on the lookout for a verification email in your inbox.

You'll start receiving the daily forecast at 6 AM.

×

10-Day Weather Forecast

×

Almanac

Astronomy

Dec. 17, 2017 Rise Set
Actual Time
Civil Twilight
Nautical Twilight
Astronomical Twilight
Moon
Length of Visible Light
Length of Day
Tomorrow will be .
, % of the Moon is Illuminated

Today's Extremes

Country Highs Country Lows

Community

WunderPhotos

Category 6

Welcome to Category 6. This is the collective home for Weather Underground's featured writeups by Dr. Jeff Masters (right), Bob Henson (left), Chris Burt, and other regular contributors.

Nearby

Air Quality

  Air Quality AQ Index Pollutant
Not available.

Snow Depth

Station Depth Elevation

Earthquake Activity

City Distance Mag. Time & Date
Minimum magnitude displayed is 2.5.

Coastal Water Temperatures

Place Temperature

Stations

Nearby Weather Stations

Station Location Temp. Windchill Dew Point Humidity Wind Precip. Elev Updated Type